Airfield :
LOGIN :

Register | Disclaimer

   EN    FR    IT 

 










Legend :    VFR   Marginal VFR   IFR   Intensive IFR   Very Intensive IFR
Visi :
Ceiling :
>= 8 km
>= 3000ft
5 to 8 km
1000 to 3000 ft
1500m to 5 km
500 to 1000 ft
800 to 1500m
200 to 500 ft
< 800m
< 200 ft
Symbols :   Thunderstorms  Fog  Heavy snow  Heavy precipitations  Wind > 20 kt
SIGMETs :     Misc.  Thunderstorms  Icing  Turbulence  Mountain Waves  Volcanic Ashes






- Airport Elevation : 291 ft
- IATA code : ORY


LFPO - Paris-Orly

CURRENT METAR :
  • 231130Z 26008KT 9999 BKN014 BKN024 17/14 Q1012 NOSIG

EXPIRED METARs :
  • 231100Z 26007KT 9999 BKN014 BKN023 17/14 Q1012 NOSIG
  • 231030Z 28006KT 230V310 9999 BKN013 BKN023 17/14 Q1012 NOSIG
  • 231000Z 24004KT 210V280 9999 BKN011 BKN021 16/15 Q1012 NOSIG
  • 230900Z 23007KT 9999 BKN007 BKN013 15/15 Q1012 TEMPO 4000 BR BKN006

TAF TAF LFPO
Valid from the 23 at 12:00 until the 24 at 18:00 UTC


231100Z 2312/2418 25008KT 9999 SCT020
PROB30
TEMPO 2317/2320 -SHRA SCT025TCU
BECMG 2401/2403 BKN012
TEMPO 2403/2411 3000 -RA BKN007
BECMG 2408/2410 20015G25KT
TEMPO 2416/2418 BKN020
ATIS : +33 1 49 75 65 80



MET'MAP, your aeronautical weather chart ! - Copyright ORBIFLY December 2007 - Disclaimer

ORBIFLY MET'MAP TEAM :

Programming & Development : Alexandra Zaïnal
Concept & original design : Baudouin d'Aumeries
Assistance for programming : Marc-Olivier Méhu
Technical & hardware support : Manuel Goepfert

Contact : metmap@orbifly.com




SOURCES & CREDITS :

   NOAA